Terminal Aerodrome Forecast
Issued by NWS Upton, NY

Home | Current Version | Previous Version | Text Only | Print | Product List | Glossary On
Versions: 1 2 3 4 5 6 7 8 9 10 11 12 13 14 15 16 17 18 19 20 21 22 23 24 25 26 27 28 29 30 31 32 33 34 35 36
000
FTUS41 KOKX 301739
TAFJFK
TAF
KJFK 301739Z 3018/3124 15010KT P6SM SCT025 BKN035 BKN100
     FM302100 16009KT P6SM VCTS BKN035CB
      TEMPO 3021/3101 4SM SHRA OVC025
     FM310100 16007KT P6SM SCT025 OVC050
      TEMPO 3101/3104 4SM SHRA OVC025
     FM310400 14007KT P6SM OVC025
     FM310800 12009KT 4SM SHRA BR OVC015
     FM311600 14008KT 5SM -SHRA BR SCT015 OVC025
     FM312100 12010KT P6SM OVC120 PROB30 3121/3124 4SM SHRA OVC025=

USA.gov is the U.S. government's official web portal to all federal, state and local government web resources and services.